sensor_id;sensor_type;location;lat;lon;timestamp;P1;durP1;ratioP1;P2;durP2;ratioP2
69779;SDS011;57052;55.602;38.096;2024-02-15T00:00:28;8.52;;;3.15;;
69779;SDS011;57052;55.602;38.096;2024-02-15T00:02:54;9.02;;;3.33;;
69779;SDS011;57052;55.602;38.096;2024-02-15T00:05:19;8.52;;;3.45;;
69779;SDS011;57052;55.602;38.096;2024-02-15T00:07:45;9.02;;;3.35;;
69779;SDS011;57052;55.602;38.096;2024-02-15T00:10:14;7.25;;;3.15;;
69779;SDS011;57052;55.602;38.096;2024-02-15T00:12:40;8.40;;;3.33;;
69779;SDS011;57052;55.602;38.096;2024-02-15T00:15:06;8.30;;;3.38;;
69779;SDS011;57052;55.602;38.096;2024-02-15T00:17:33;10.15;;;3.72;;
69779;SDS011;57052;55.602;38.096;2024-02-15T00:20:01;8.82;;;3.42;;
69779;SDS011;57052;55.602;38.096;2024-02-15T00:22:36;8.40;;;3.20;;
69779;SDS011;57052;55.602;38.096;2024-02-15T00:25:02;6.03;;;2.88;;
69779;SDS011;57052;55.602;38.096;2024-02-15T00:27:29;7.60;;;3.20;;
69779;SDS011;57052;55.602;38.096;2024-02-15T00:29:54;8.13;;;3.10;;
69779;SDS011;57052;55.602;38.096;2024-02-15T00:32:20;11.73;;;3.03;;
69779;SDS011;57052;55.602;38.096;2024-02-15T00:34:46;9.05;;;3.70;;
69779;SDS011;57052;55.602;38.096;2024-02-15T00:37:12;7.97;;;3.28;;
69779;SDS011;57052;55.602;38.096;2024-02-15T00:39:38;9.63;;;3.55;;
69779;SDS011;57052;55.602;38.096;2024-02-15T00:42:04;11.48;;;3.22;;
69779;SDS011;57052;55.602;38.096;2024-02-15T00:44:31;8.95;;;3.35;;
69779;SDS011;57052;55.602;38.096;2024-02-15T00:46:57;8.90;;;3.38;;
69779;SDS011;57052;55.602;38.096;2024-02-15T00:49:22;8.20;;;3.55;;
69779;SDS011;57052;55.602;38.096;2024-02-15T00:51:48;9.52;;;3.72;;
69779;SDS011;57052;55.602;38.096;2024-02-15T00:54:14;8.38;;;3.33;;
69779;SDS011;57052;55.602;38.096;2024-02-15T00:56:40;6.60;;;2.70;;
69779;SDS011;57052;55.602;38.096;2024-02-15T00:59:06;10.05;;;3.40;;
69779;SDS011;57052;55.602;38.096;2024-02-15T01:01:32;8.07;;;3.67;;
69779;SDS011;57052;55.602;38.096;2024-02-15T01:03:58;6.53;;;3.20;;
69779;SDS011;57052;55.602;38.096;2024-02-15T01:06:23;7.55;;;2.95;;
69779;SDS011;57052;55.602;38.096;2024-02-15T01:08:49;8.27;;;3.08;;
69779;SDS011;57052;55.602;38.096;2024-02-15T01:11:15;8.95;;;3.38;;
69779;SDS011;57052;55.602;38.096;2024-02-15T01:13:41;6.75;;;3.35;;
69779;SDS011;57052;55.602;38.096;2024-02-15T01:16:07;8.45;;;3.67;;
69779;SDS011;57052;55.602;38.096;2024-02-15T01:18:35;11.88;;;3.38;;
69779;SDS011;57052;55.602;38.096;2024-02-15T01:21:01;7.32;;;3.53;;
69779;SDS011;57052;55.602;38.096;2024-02-15T01:23:27;12.18;;;4.28;;
69779;SDS011;57052;55.602;38.096;2024-02-15T01:25:53;7.82;;;3.55;;
69779;SDS011;57052;55.602;38.096;2024-02-15T01:28:19;9.65;;;3.30;;
69779;SDS011;57052;55.602;38.096;2024-02-15T01:30:45;8.75;;;3.22;;
69779;SDS011;57052;55.602;38.096;2024-02-15T01:33:12;11.07;;;4.13;;
69779;SDS011;57052;55.602;38.096;2024-02-15T01:35:38;7.38;;;3.17;;
69779;SDS011;57052;55.602;38.096;2024-02-15T01:38:04;12.15;;;3.80;;
69779;SDS011;57052;55.602;38.096;2024-02-15T01:40:31;8.20;;;4.22;;
69779;SDS011;57052;55.602;38.096;2024-02-15T01:42:57;7.32;;;3.42;;
69779;SDS011;57052;55.602;38.096;2024-02-15T01:45:24;8.27;;;3.30;;
69779;SDS011;57052;55.602;38.096;2024-02-15T01:47:51;9.18;;;3.90;;
69779;SDS011;57052;55.602;38.096;2024-02-15T01:50:18;11.80;;;4.03;;
69779;SDS011;57052;55.602;38.096;2024-02-15T01:52:45;7.82;;;3.47;;
69779;SDS011;57052;55.602;38.096;2024-02-15T01:55:14;6.15;;;2.95;;
69779;SDS011;57052;55.602;38.096;2024-02-15T01:57:45;7.47;;;3.50;;
69779;SDS011;57052;55.602;38.096;2024-02-15T02:00:17;8.77;;;3.70;;
69779;SDS011;57052;55.602;38.096;2024-02-15T02:02:54;8.82;;;3.58;;
69779;SDS011;57052;55.602;38.096;2024-02-15T02:05:29;9.23;;;3.60;;
69779;SDS011;57052;55.602;38.096;2024-02-15T02:07:57;10.23;;;3.25;;
69779;SDS011;57052;55.602;38.096;2024-02-15T02:10:30;8.35;;;2.95;;
69779;SDS011;57052;55.602;38.096;2024-02-15T02:13:02;9.23;;;3.78;;
69779;SDS011;57052;55.602;38.096;2024-02-15T02:15:29;8.65;;;3.25;;
69779;SDS011;57052;55.602;38.096;2024-02-15T02:17:57;6.35;;;3.55;;
69779;SDS011;57052;55.602;38.096;2024-02-15T02:20:28;7.22;;;3.28;;
69779;SDS011;57052;55.602;38.096;2024-02-15T02:22:54;8.07;;;3.67;;
69779;SDS011;57052;55.602;38.096;2024-02-15T02:25:32;11.38;;;3.28;;
69779;SDS011;57052;55.602;38.096;2024-02-15T02:27:59;7.82;;;3.67;;
69779;SDS011;57052;55.602;38.096;2024-02-15T02:30:25;9.27;;;4.05;;
69779;SDS011;57052;55.602;38.096;2024-02-15T02:32:58;10.20;;;3.80;;
69779;SDS011;57052;55.602;38.096;2024-02-15T02:35:25;8.52;;;3.58;;
69779;SDS011;57052;55.602;38.096;2024-02-15T02:37:51;8.77;;;3.58;;
69779;SDS011;57052;55.602;38.096;2024-02-15T02:40:19;8.15;;;3.30;;
69779;SDS011;57052;55.602;38.096;2024-02-15T02:42:52;9.98;;;3.78;;
69779;SDS011;57052;55.602;38.096;2024-02-15T02:45:24;7.53;;;3.47;;
69779;SDS011;57052;55.602;38.096;2024-02-15T02:47:50;8.85;;;3.60;;
69779;SDS011;57052;55.602;38.096;2024-02-15T02:50:17;11.60;;;3.55;;
69779;SDS011;57052;55.602;38.096;2024-02-15T02:52:44;12.88;;;3.58;;
69779;SDS011;57052;55.602;38.096;2024-02-15T02:55:10;12.60;;;3.90;;
69779;SDS011;57052;55.602;38.096;2024-02-15T02:57:37;9.73;;;4.15;;
69779;SDS011;57052;55.602;38.096;2024-02-15T03:00:09;11.40;;;4.05;;
69779;SDS011;57052;55.602;38.096;2024-02-15T03:02:39;9.32;;;3.70;;
69779;SDS011;57052;55.602;38.096;2024-02-15T03:05:05;8.48;;;3.97;;
69779;SDS011;57052;55.602;38.096;2024-02-15T03:07:34;10.25;;;3.97;;
69779;SDS011;57052;55.602;38.096;2024-02-15T03:10:01;13.32;;;3.72;;
69779;SDS011;57052;55.602;38.096;2024-02-15T03:12:30;10.32;;;3.88;;
69779;SDS011;57052;55.602;38.096;2024-02-15T03:14:56;9.60;;;3.67;;
69779;SDS011;57052;55.602;38.096;2024-02-15T03:17:23;9.27;;;4.30;;
69779;SDS011;57052;55.602;38.096;2024-02-15T03:19:49;11.93;;;4.72;;
69779;SDS011;57052;55.602;38.096;2024-02-15T03:22:14;12.00;;;3.78;;
69779;SDS011;57052;55.602;38.096;2024-02-15T03:24:40;11.27;;;3.92;;
69779;SDS011;57052;55.602;38.096;2024-02-15T03:27:07;10.27;;;3.72;;
69779;SDS011;57052;55.602;38.096;2024-02-15T03:29:35;10.70;;;4.25;;
69779;SDS011;57052;55.602;38.096;2024-02-15T03:32:02;10.57;;;3.70;;
69779;SDS011;57052;55.602;38.096;2024-02-15T03:34:30;8.60;;;3.70;;
69779;SDS011;57052;55.602;38.096;2024-02-15T03:36:56;10.13;;;3.80;;
69779;SDS011;57052;55.602;38.096;2024-02-15T03:39:22;9.25;;;3.83;;
69779;SDS011;57052;55.602;38.096;2024-02-15T03:41:49;7.40;;;3.55;;
69779;SDS011;57052;55.602;38.096;2024-02-15T03:44:17;9.75;;;3.60;;
69779;SDS011;57052;55.602;38.096;2024-02-15T03:46:44;7.63;;;3.60;;
69779;SDS011;57052;55.602;38.096;2024-02-15T03:49:17;9.13;;;3.38;;
69779;SDS011;57052;55.602;38.096;2024-02-15T03:51:44;11.00;;;3.70;;
69779;SDS011;57052;55.602;38.096;2024-02-15T03:54:11;10.00;;;3.72;;
69779;SDS011;57052;55.602;38.096;2024-02-15T03:56:46;10.27;;;3.58;;
69779;SDS011;57052;55.602;38.096;2024-02-15T03:59:19;7.93;;;3.22;;
69779;SDS011;57052;55.602;38.096;2024-02-15T04:04:20;8.13;;;3.17;;
69779;SDS011;57052;55.602;38.096;2024-02-15T04:06:50;9.82;;;3.55;;
69779;SDS011;57052;55.602;38.096;2024-02-15T04:09:19;8.20;;;3.60;;
69779;SDS011;57052;55.602;38.096;2024-02-15T04:11:48;9.93;;;3.75;;
69779;SDS011;57052;55.602;38.096;2024-02-15T04:14:18;9.15;;;3.35;;
69779;SDS011;57052;55.602;38.096;2024-02-15T04:16:45;8.55;;;3.28;;
69779;SDS011;57052;55.602;38.096;2024-02-15T04:19:11;9.18;;;3.92;;
69779;SDS011;57052;55.602;38.096;2024-02-15T04:21:37;6.68;;;3.20;;
69779;SDS011;57052;55.602;38.096;2024-02-15T04:24:04;8.95;;;3.95;;
69779;SDS011;57052;55.602;38.096;2024-02-15T04:26:30;9.02;;;3.42;;
69779;SDS011;57052;55.602;38.096;2024-02-15T04:28:57;10.15;;;3.63;;
69779;SDS011;57052;55.602;38.096;2024-02-15T04:31:24;12.43;;;4.07;;
69779;SDS011;57052;55.602;38.096;2024-02-15T04:33:53;8.80;;;3.97;;
69779;SDS011;57052;55.602;38.096;2024-02-15T04:36:20;7.80;;;3.00;;
69779;SDS011;57052;55.602;38.096;2024-02-15T04:38:51;12.07;;;4.15;;
69779;SDS011;57052;55.602;38.096;2024-02-15T04:41:17;7.90;;;3.60;;
69779;SDS011;57052;55.602;38.096;2024-02-15T04:43:49;6.32;;;3.45;;
69779;SDS011;57052;55.602;38.096;2024-02-15T04:46:15;7.10;;;2.90;;
69779;SDS011;57052;55.602;38.096;2024-02-15T04:48:41;11.23;;;3.50;;
69779;SDS011;57052;55.602;38.096;2024-02-15T04:51:08;8.40;;;3.28;;
69779;SDS011;57052;55.602;38.096;2024-02-15T04:53:36;7.65;;;3.42;;
69779;SDS011;57052;55.602;38.096;2024-02-15T04:56:04;7.32;;;3.45;;
69779;SDS011;57052;55.602;38.096;2024-02-15T04:58:38;7.82;;;3.15;;
69779;SDS011;57052;55.602;38.096;2024-02-15T05:01:13;10.15;;;3.28;;
69779;SDS011;57052;55.602;38.096;2024-02-15T05:03:40;6.90;;;2.90;;
69779;SDS011;57052;55.602;38.096;2024-02-15T05:06:05;10.35;;;3.55;;
69779;SDS011;57052;55.602;38.096;2024-02-15T05:08:33;9.30;;;3.38;;
69779;SDS011;57052;55.602;38.096;2024-02-15T05:11:01;9.75;;;3.20;;
69779;SDS011;57052;55.602;38.096;2024-02-15T05:13:29;8.02;;;3.15;;
69779;SDS011;57052;55.602;38.096;2024-02-15T05:15:55;8.82;;;3.30;;
69779;SDS011;57052;55.602;38.096;2024-02-15T05:18:21;7.93;;;3.88;;
69779;SDS011;57052;55.602;38.096;2024-02-15T05:20:46;8.80;;;3.80;;
69779;SDS011;57052;55.602;38.096;2024-02-15T05:23:12;8.75;;;3.13;;
69779;SDS011;57052;55.602;38.096;2024-02-15T05:25:38;8.05;;;3.13;;
69779;SDS011;57052;55.602;38.096;2024-02-15T05:28:03;9.35;;;3.10;;
69779;SDS011;57052;55.602;38.096;2024-02-15T05:30:31;8.82;;;3.35;;
69779;SDS011;57052;55.602;38.096;2024-02-15T05:32:58;10.13;;;3.50;;
69779;SDS011;57052;55.602;38.096;2024-02-15T05:35:23;9.63;;;3.30;;
69779;SDS011;57052;55.602;38.096;2024-02-15T05:37:50;9.50;;;3.40;;
69779;SDS011;57052;55.602;38.096;2024-02-15T05:40:18;7.03;;;3.40;;
69779;SDS011;57052;55.602;38.096;2024-02-15T05:42:44;12.05;;;3.35;;
69779;SDS011;57052;55.602;38.096;2024-02-15T10:21:09;12.70;;;4.05;;
69779;SDS011;57052;55.602;38.096;2024-02-15T10:23:36;13.27;;;4.40;;
69779;SDS011;57052;55.602;38.096;2024-02-15T10:26:18;9.88;;;3.60;;
69779;SDS011;57052;55.602;38.096;2024-02-15T10:28:45;9.68;;;3.35;;
69779;SDS011;57052;55.602;38.096;2024-02-15T10:31:12;12.75;;;4.15;;
69779;SDS011;57052;55.602;38.096;2024-02-15T10:33:38;10.27;;;3.85;;
69779;SDS011;57052;55.602;38.096;2024-02-15T10:36:05;8.00;;;3.40;;
69779;SDS011;57052;55.602;38.096;2024-02-15T10:38:34;10.93;;;3.58;;
69779;SDS011;57052;55.602;38.096;2024-02-15T10:41:03;11.13;;;3.80;;
69779;SDS011;57052;55.602;38.096;2024-02-15T10:43:33;11.27;;;4.13;;
69779;SDS011;57052;55.602;38.096;2024-02-15T10:46:02;10.48;;;3.88;;
69779;SDS011;57052;55.602;38.096;2024-02-15T10:48:28;8.32;;;3.47;;
69779;SDS011;57052;55.602;38.096;2024-02-15T10:50:55;8.95;;;3.05;;
69779;SDS011;57052;55.602;38.096;2024-02-15T10:53:42;9.18;;;3.42;;
69779;SDS011;57052;55.602;38.096;2024-02-15T10:58:55;11.95;;;4.20;;
69779;SDS011;57052;55.602;38.096;2024-02-15T11:01:30;16.10;;;4.72;;
69779;SDS011;57052;55.602;38.096;2024-02-15T11:03:59;9.30;;;3.70;;
69779;SDS011;57052;55.602;38.096;2024-02-15T11:06:28;12.25;;;4.03;;
69779;SDS011;57052;55.602;38.096;2024-02-15T11:08:58;11.43;;;3.92;;
69779;SDS011;57052;55.602;38.096;2024-02-15T11:11:25;14.10;;;4.32;;
69779;SDS011;57052;55.602;38.096;2024-02-15T11:14:35;10.48;;;4.15;;
69779;SDS011;57052;55.602;38.096;2024-02-15T11:16:54;11.65;;;3.88;;
69779;SDS011;57052;55.602;38.096;2024-02-15T11:22:09;10.75;;;4.35;;
69779;SDS011;57052;55.602;38.096;2024-02-15T11:24:45;9.65;;;4.55;;
69779;SDS011;57052;55.602;38.096;2024-02-15T11:27:13;9.00;;;3.97;;
69779;SDS011;57052;55.602;38.096;2024-02-15T11:29:56;11.40;;;4.20;;
69779;SDS011;57052;55.602;38.096;2024-02-15T11:32:44;8.90;;;3.92;;
69779;SDS011;57052;55.602;38.096;2024-02-15T11:35:19;9.82;;;4.07;;
69779;SDS011;57052;55.602;38.096;2024-02-15T11:43:09;10.70;;;4.43;;
69779;SDS011;57052;55.602;38.096;2024-02-15T11:45:36;10.48;;;4.47;;
69779;SDS011;57052;55.602;38.096;2024-02-15T11:48:09;11.02;;;4.18;;
69779;SDS011;57052;55.602;38.096;2024-02-15T11:50:37;9.90;;;3.38;;
69779;SDS011;57052;55.602;38.096;2024-02-15T11:53:05;9.40;;;3.55;;
69779;SDS011;57052;55.602;38.096;2024-02-15T11:55:34;11.98;;;4.03;;
69779;SDS011;57052;55.602;38.096;2024-02-15T11:58:04;9.63;;;3.70;;
69779;SDS011;57052;55.602;38.096;2024-02-15T12:00:42;10.27;;;3.88;;
69779;SDS011;57052;55.602;38.096;2024-02-15T12:03:26;10.52;;;3.88;;
69779;SDS011;57052;55.602;38.096;2024-02-15T12:06:10;8.98;;;3.97;;
69779;SDS011;57052;55.602;38.096;2024-02-15T12:08:54;7.68;;;3.60;;
69779;SDS011;57052;55.602;38.096;2024-02-15T12:11:39;13.30;;;4.47;;
69779;SDS011;57052;55.602;38.096;2024-02-15T12:14:24;10.85;;;4.22;;
69779;SDS011;57052;55.602;38.096;2024-02-15T12:17:12;18.20;;;4.28;;
69779;SDS011;57052;55.602;38.096;2024-02-15T12:20:00;11.18;;;3.85;;
69779;SDS011;57052;55.602;38.096;2024-02-15T12:22:35;8.00;;;3.78;;
69779;SDS011;57052;55.602;38.096;2024-02-15T12:25:07;10.38;;;4.05;;
69779;SDS011;57052;55.602;38.096;2024-02-15T12:27:41;11.50;;;4.40;;
69779;SDS011;57052;55.602;38.096;2024-02-15T12:30:17;11.35;;;3.75;;
69779;SDS011;57052;55.602;38.096;2024-02-15T12:32:47;10.13;;;4.32;;
69779;SDS011;57052;55.602;38.096;2024-02-15T12:35:20;10.90;;;3.65;;
69779;SDS011;57052;55.602;38.096;2024-02-15T12:40:30;9.43;;;4.27;;
69779;SDS011;57052;55.602;38.096;2024-02-15T12:42:58;14.60;;;4.75;;
69779;SDS011;57052;55.602;38.096;2024-02-15T12:45:30;10.98;;;4.60;;
69779;SDS011;57052;55.602;38.096;2024-02-15T12:47:57;9.77;;;3.70;;
69779;SDS011;57052;55.602;38.096;2024-02-15T12:50:27;12.32;;;4.40;;
69779;SDS011;57052;55.602;38.096;2024-02-15T12:52:54;6.63;;;3.53;;
69779;SDS011;57052;55.602;38.096;2024-02-15T12:55:35;9.20;;;3.63;;
69779;SDS011;57052;55.602;38.096;2024-02-15T12:58:03;9.40;;;4.05;;
69779;SDS011;57052;55.602;38.096;2024-02-15T13:00:33;10.07;;;4.28;;
69779;SDS011;57052;55.602;38.096;2024-02-15T13:03:04;11.15;;;4.13;;
69779;SDS011;57052;55.602;38.096;2024-02-15T13:05:37;12.05;;;4.30;;
69779;SDS011;57052;55.602;38.096;2024-02-15T13:08:03;10.05;;;4.00;;
69779;SDS011;57052;55.602;38.096;2024-02-15T13:10:34;9.30;;;3.33;;
69779;SDS011;57052;55.602;38.096;2024-02-15T13:13:00;11.30;;;4.00;;
69779;SDS011;57052;55.602;38.096;2024-02-15T13:15:26;11.85;;;4.53;;
69779;SDS011;57052;55.602;38.096;2024-02-15T13:17:53;14.38;;;4.78;;
69779;SDS011;57052;55.602;38.096;2024-02-15T13:20:20;8.80;;;3.60;;
69779;SDS011;57052;55.602;38.096;2024-02-15T13:22:55;11.35;;;3.95;;
69779;SDS011;57052;55.602;38.096;2024-02-15T13:25:25;10.85;;;4.03;;
69779;SDS011;57052;55.602;38.096;2024-02-15T13:27:51;11.15;;;4.65;;
69779;SDS011;57052;55.602;38.096;2024-02-15T13:30:16;11.40;;;3.72;;
69779;SDS011;57052;55.602;38.096;2024-02-15T13:32:48;11.40;;;4.47;;
69779;SDS011;57052;55.602;38.096;2024-02-15T13:35:16;12.75;;;3.75;;
69779;SDS011;57052;55.602;38.096;2024-02-15T13:37:48;11.95;;;4.35;;
69779;SDS011;57052;55.602;38.096;2024-02-15T13:40:14;14.60;;;4.07;;
69779;SDS011;57052;55.602;38.096;2024-02-15T13:42:44;10.15;;;4.05;;
69779;SDS011;57052;55.602;38.096;2024-02-15T13:45:16;11.57;;;4.07;;
69779;SDS011;57052;55.602;38.096;2024-02-15T13:47:45;11.25;;;3.85;;
69779;SDS011;57052;55.602;38.096;2024-02-15T13:50:12;9.43;;;3.88;;
69779;SDS011;57052;55.602;38.096;2024-02-15T13:52:43;12.05;;;4.28;;
69779;SDS011;57052;55.602;38.096;2024-02-15T13:55:13;12.75;;;4.50;;
69779;SDS011;57052;55.602;38.096;2024-02-15T13:57:40;11.10;;;4.57;;
69779;SDS011;57052;55.602;38.096;2024-02-15T14:00:16;10.40;;;3.90;;
69779;SDS011;57052;55.602;38.096;2024-02-15T14:02:49;11.75;;;4.25;;
69779;SDS011;57052;55.602;38.096;2024-02-15T14:05:16;7.30;;;3.65;;
69779;SDS011;57052;55.602;38.096;2024-02-15T14:07:48;12.77;;;4.20;;
69779;SDS011;57052;55.602;38.096;2024-02-15T14:10:30;12.70;;;4.15;;
69779;SDS011;57052;55.602;38.096;2024-02-15T14:12:58;12.40;;;4.63;;
69779;SDS011;57052;55.602;38.096;2024-02-15T14:15:25;12.13;;;4.63;;
69779;SDS011;57052;55.602;38.096;2024-02-15T14:17:51;11.38;;;4.43;;
69779;SDS011;57052;55.602;38.096;2024-02-15T14:20:17;10.70;;;4.03;;
69779;SDS011;57052;55.602;38.096;2024-02-15T14:22:45;11.05;;;4.63;;
69779;SDS011;57052;55.602;38.096;2024-02-15T14:25:18;12.85;;;4.38;;
69779;SDS011;57052;55.602;38.096;2024-02-15T14:27:44;13.23;;;4.30;;
69779;SDS011;57052;55.602;38.096;2024-02-15T14:30:12;10.68;;;4.38;;
69779;SDS011;57052;55.602;38.096;2024-02-15T14:32:56;12.75;;;4.25;;
69779;SDS011;57052;55.602;38.096;2024-02-15T14:35:28;11.13;;;4.38;;
69779;SDS011;57052;55.602;38.096;2024-02-15T14:38:01;14.93;;;4.20;;
69779;SDS011;57052;55.602;38.096;2024-02-15T14:40:39;10.10;;;4.22;;
69779;SDS011;57052;55.602;38.096;2024-02-15T14:43:08;11.45;;;4.15;;
69779;SDS011;57052;55.602;38.096;2024-02-15T14:45:37;11.80;;;4.20;;
69779;SDS011;57052;55.602;38.096;2024-02-15T14:48:06;9.73;;;3.83;;
69779;SDS011;57052;55.602;38.096;2024-02-15T14:50:37;13.05;;;4.53;;
69779;SDS011;57052;55.602;38.096;2024-02-15T14:53:03;12.95;;;4.72;;
69779;SDS011;57052;55.602;38.096;2024-02-15T14:55:29;15.45;;;4.28;;
69779;SDS011;57052;55.602;38.096;2024-02-15T14:57:56;11.23;;;4.32;;
69779;SDS011;57052;55.602;38.096;2024-02-15T15:00:25;11.05;;;4.78;;
69779;SDS011;57052;55.602;38.096;2024-02-15T15:02:52;12.55;;;4.40;;
69779;SDS011;57052;55.602;38.096;2024-02-15T15:05:21;12.00;;;4.70;;
69779;SDS011;57052;55.602;38.096;2024-02-15T15:08:06;9.85;;;4.38;;
69779;SDS011;57052;55.602;38.096;2024-02-15T15:10:50;11.95;;;4.10;;
69779;SDS011;57052;55.602;38.096;2024-02-15T15:13:35;11.45;;;4.20;;
69779;SDS011;57052;55.602;38.096;2024-02-15T15:16:01;11.48;;;4.63;;
69779;SDS011;57052;55.602;38.096;2024-02-15T15:18:28;10.45;;;4.45;;
69779;SDS011;57052;55.602;38.096;2024-02-15T15:20:56;10.75;;;4.32;;
69779;SDS011;57052;55.602;38.096;2024-02-15T15:23:23;10.13;;;4.30;;
69779;SDS011;57052;55.602;38.096;2024-02-15T15:25:49;11.88;;;4.30;;
69779;SDS011;57052;55.602;38.096;2024-02-15T15:28:14;10.15;;;4.28;;
69779;SDS011;57052;55.602;38.096;2024-02-15T15:30:40;10.93;;;4.57;;
69779;SDS011;57052;55.602;38.096;2024-02-15T15:33:06;10.23;;;3.75;;
69779;SDS011;57052;55.602;38.096;2024-02-15T15:35:34;10.90;;;4.20;;
69779;SDS011;57052;55.602;38.096;2024-02-15T15:38:00;11.98;;;5.22;;
69779;SDS011;57052;55.602;38.096;2024-02-15T15:40:26;10.88;;;4.55;;
69779;SDS011;57052;55.602;38.096;2024-02-15T15:42:52;10.88;;;4.47;;
69779;SDS011;57052;55.602;38.096;2024-02-15T15:45:18;8.88;;;4.38;;
69779;SDS011;57052;55.602;38.096;2024-02-15T15:47:43;10.82;;;4.15;;
69779;SDS011;57052;55.602;38.096;2024-02-15T15:50:09;9.80;;;4.05;;
69779;SDS011;57052;55.602;38.096;2024-02-15T15:52:38;10.80;;;4.95;;
69779;SDS011;57052;55.602;38.096;2024-02-15T15:55:04;10.65;;;4.30;;
69779;SDS011;57052;55.602;38.096;2024-02-15T15:57:36;10.70;;;4.57;;
69779;SDS011;57052;55.602;38.096;2024-02-15T16:00:07;14.38;;;5.35;;
69779;SDS011;57052;55.602;38.096;2024-02-15T16:02:40;11.88;;;4.40;;
69779;SDS011;57052;55.602;38.096;2024-02-15T16:05:25;13.70;;;5.72;;
69779;SDS011;57052;55.602;38.096;2024-02-15T16:07:51;12.55;;;4.65;;
69779;SDS011;57052;55.602;38.096;2024-02-15T16:10:17;10.75;;;4.47;;
69779;SDS011;57052;55.602;38.096;2024-02-15T16:12:48;15.13;;;4.68;;
69779;SDS011;57052;55.602;38.096;2024-02-15T16:15:16;13.45;;;4.78;;
69779;SDS011;57052;55.602;38.096;2024-02-15T16:17:45;12.73;;;4.88;;
69779;SDS011;57052;55.602;38.096;2024-02-15T16:20:11;12.27;;;5.03;;
69779;SDS011;57052;55.602;38.096;2024-02-15T16:22:39;12.95;;;4.63;;
69779;SDS011;57052;55.602;38.096;2024-02-15T16:25:06;12.85;;;4.82;;
69779;SDS011;57052;55.602;38.096;2024-02-15T16:27:42;9.95;;;4.65;;
69779;SDS011;57052;55.602;38.096;2024-02-15T16:30:09;11.27;;;4.55;;
69779;SDS011;57052;55.602;38.096;2024-02-15T16:32:41;10.60;;;4.70;;
69779;SDS011;57052;55.602;38.096;2024-02-15T16:35:08;9.07;;;3.95;;
69779;SDS011;57052;55.602;38.096;2024-02-15T16:37:40;12.25;;;4.97;;
69779;SDS011;57052;55.602;38.096;2024-02-15T16:40:07;12.00;;;4.57;;
69779;SDS011;57052;55.602;38.096;2024-02-15T16:42:34;12.38;;;4.28;;
69779;SDS011;57052;55.602;38.096;2024-02-15T16:45:07;10.70;;;4.38;;
69779;SDS011;57052;55.602;38.096;2024-02-15T16:47:37;11.10;;;4.28;;
69779;SDS011;57052;55.602;38.096;2024-02-15T16:50:04;11.98;;;4.35;;
69779;SDS011;57052;55.602;38.096;2024-02-15T16:52:34;12.25;;;4.70;;
69779;SDS011;57052;55.602;38.096;2024-02-15T16:55:03;12.10;;;4.50;;
69779;SDS011;57052;55.602;38.096;2024-02-15T16:57:31;10.82;;;4.82;;
69779;SDS011;57052;55.602;38.096;2024-02-15T16:59:58;10.38;;;4.28;;
69779;SDS011;57052;55.602;38.096;2024-02-15T17:02:23;11.45;;;5.03;;
69779;SDS011;57052;55.602;38.096;2024-02-15T17:04:49;12.18;;;4.40;;
69779;SDS011;57052;55.602;38.096;2024-02-15T17:07:15;11.63;;;5.15;;
69779;SDS011;57052;55.602;38.096;2024-02-15T17:09:41;12.70;;;4.47;;
69779;SDS011;57052;55.602;38.096;2024-02-15T17:12:06;14.45;;;4.75;;
69779;SDS011;57052;55.602;38.096;2024-02-15T17:14:32;13.25;;;4.72;;
69779;SDS011;57052;55.602;38.096;2024-02-15T17:17:00;11.50;;;4.45;;
69779;SDS011;57052;55.602;38.096;2024-02-15T17:19:25;10.25;;;4.28;;
69779;SDS011;57052;55.602;38.096;2024-02-15T17:21:51;13.27;;;4.78;;
69779;SDS011;57052;55.602;38.096;2024-02-15T17:24:16;15.20;;;4.95;;
69779;SDS011;57052;55.602;38.096;2024-02-15T17:26:44;12.43;;;4.25;;
69779;SDS011;57052;55.602;38.096;2024-02-15T17:29:11;9.35;;;4.88;;
69779;SDS011;57052;55.602;38.096;2024-02-15T17:31:37;11.23;;;5.43;;
69779;SDS011;57052;55.602;38.096;2024-02-15T17:34:09;10.27;;;4.28;;
69779;SDS011;57052;55.602;38.096;2024-02-15T17:36:38;12.82;;;4.38;;
69779;SDS011;57052;55.602;38.096;2024-02-15T17:39:04;11.88;;;4.47;;
69779;SDS011;57052;55.602;38.096;2024-02-15T17:41:30;9.70;;;4.07;;
69779;SDS011;57052;55.602;38.096;2024-02-15T17:43:57;16.02;;;5.55;;
69779;SDS011;57052;55.602;38.096;2024-02-15T17:46:25;10.48;;;4.85;;
69779;SDS011;57052;55.602;38.096;2024-02-15T17:48:52;11.60;;;4.60;;
69779;SDS011;57052;55.602;38.096;2024-02-15T17:51:18;11.02;;;4.70;;
69779;SDS011;57052;55.602;38.096;2024-02-15T17:53:44;9.38;;;4.88;;
69779;SDS011;57052;55.602;38.096;2024-02-15T17:56:10;11.30;;;4.93;;
69779;SDS011;57052;55.602;38.096;2024-02-15T17:58:39;12.48;;;4.45;;
69779;SDS011;57052;55.602;38.096;2024-02-15T18:01:07;14.27;;;4.80;;
69779;SDS011;57052;55.602;38.096;2024-02-15T18:03:33;11.40;;;5.13;;
69779;SDS011;57052;55.602;38.096;2024-02-15T18:06:17;8.95;;;4.10;;
69779;SDS011;57052;55.602;38.096;2024-02-15T18:08:43;11.60;;;4.28;;
69779;SDS011;57052;55.602;38.096;2024-02-15T18:11:08;10.90;;;4.30;;
69779;SDS011;57052;55.602;38.096;2024-02-15T18:13:38;10.68;;;4.15;;
69779;SDS011;57052;55.602;38.096;2024-02-15T18:16:07;11.70;;;4.53;;
69779;SDS011;57052;55.602;38.096;2024-02-15T18:18:34;14.93;;;4.72;;
69779;SDS011;57052;55.602;38.096;2024-02-15T18:21:00;9.27;;;4.22;;
69779;SDS011;57052;55.602;38.096;2024-02-15T18:23:26;12.82;;;4.47;;
69779;SDS011;57052;55.602;38.096;2024-02-15T18:25:51;10.38;;;4.43;;
69779;SDS011;57052;55.602;38.096;2024-02-15T18:28:18;13.82;;;4.90;;
69779;SDS011;57052;55.602;38.096;2024-02-15T18:30:44;13.60;;;4.53;;
69779;SDS011;57052;55.602;38.096;2024-02-15T18:33:13;10.05;;;4.38;;
69779;SDS011;57052;55.602;38.096;2024-02-15T18:35:43;14.98;;;5.15;;
69779;SDS011;57052;55.602;38.096;2024-02-15T18:38:09;12.00;;;4.78;;
69779;SDS011;57052;55.602;38.096;2024-02-15T18:40:39;11.05;;;4.80;;
69779;SDS011;57052;55.602;38.096;2024-02-15T18:43:05;10.00;;;4.32;;
69779;SDS011;57052;55.602;38.096;2024-02-15T18:45:34;9.93;;;4.72;;
69779;SDS011;57052;55.602;38.096;2024-02-15T18:48:04;10.57;;;4.32;;
69779;SDS011;57052;55.602;38.096;2024-02-15T18:50:32;12.25;;;4.60;;
69779;SDS011;57052;55.602;38.096;2024-02-15T18:52:59;9.20;;;3.92;;
69779;SDS011;57052;55.602;38.096;2024-02-15T18:55:25;15.93;;;4.68;;
69779;SDS011;57052;55.602;38.096;2024-02-15T18:57:52;11.45;;;5.15;;
69779;SDS011;57052;55.602;38.096;2024-02-15T19:00:19;11.32;;;4.10;;
69779;SDS011;57052;55.602;38.096;2024-02-15T19:02:53;10.13;;;4.22;;
69779;SDS011;57052;55.602;38.096;2024-02-15T19:05:18;9.20;;;4.18;;
69779;SDS011;57052;55.602;38.096;2024-02-15T19:07:48;14.52;;;4.70;;
69779;SDS011;57052;55.602;38.096;2024-02-15T19:10:15;12.68;;;4.75;;
69779;SDS011;57052;55.602;38.096;2024-02-15T19:12:41;12.45;;;4.18;;
69779;SDS011;57052;55.602;38.096;2024-02-15T19:15:07;8.82;;;3.90;;
69779;SDS011;57052;55.602;38.096;2024-02-15T19:17:33;10.38;;;4.25;;
69779;SDS011;57052;55.602;38.096;2024-02-15T19:19:59;12.68;;;4.05;;
69779;SDS011;57052;55.602;38.096;2024-02-15T19:22:26;12.20;;;4.38;;
69779;SDS011;57052;55.602;38.096;2024-02-15T19:24:52;11.10;;;4.10;;
69779;SDS011;57052;55.602;38.096;2024-02-15T19:27:18;12.32;;;4.70;;